Time;durP1;ratioP1;P1;durP2;ratioP2;P2;SDS_P1;SDS_P2;PMS_P1;PMS_P2;Temp;Humidity;BMP_temperature;BMP_pressure;BME280_temperature;BME280_humidity;BME280_pressure;Samples;Min_cycle;Max_cycle;Signal;HPM_P1;HPM_P2
2023/07/19 00:02:10;;;;;;;4.45;4.05;;;;;;;25.66;62.20;65706.97;5049455;28;20209;-51
2023/07/19 00:04:35;;;;;;;4.82;4.32;;;;;;;25.56;63.47;65695.88;5049229;28;20213;-53
2023/07/19 00:07:01;;;;;;;6.95;4.60;;;;;;;25.54;63.06;65691.06;5052341;28;20232;-50
2023/07/19 00:09:26;;;;;;;8.00;4.97;;;;;;;25.29;64.13;65666.41;5034800;28;20288;-52
2023/07/19 00:11:53;;;;;;;5.45;4.60;;;;;;;25.24;65.17;65662.91;5053145;28;20703;-53
2023/07/19 00:14:19;;;;;;;6.80;4.40;;;;;;;25.21;65.63;65657.53;5034657;28;20292;-54
2023/07/19 00:16:45;;;;;;;5.05;4.53;;;;;;;25.21;65.65;65657.00;5052691;28;20210;-51
2023/07/19 00:19:10;;;;;;;5.05;4.55;;;;;;;25.10;65.56;65645.34;5052731;28;20204;-51
2023/07/19 00:21:36;;;;;;;8.02;5.00;;;;;;;24.96;66.59;65627.22;5052806;28;20209;-54
2023/07/19 00:24:01;;;;;;;6.18;4.63;;;;;;;24.99;67.19;65633.13;5052376;28;20244;-51
2023/07/19 00:26:26;;;;;;;5.88;4.60;;;;;;;24.93;66.72;65626.47;5052526;28;20205;-51
2023/07/19 00:28:52;;;;;;;7.75;4.90;;;;;;;24.73;67.36;65604.84;5052289;28;20383;-52
2023/07/19 00:31:17;;;;;;;5.05;4.55;;;;;;;24.47;68.91;65575.41;5052014;28;20201;-51
2023/07/19 00:33:43;;;;;;;8.60;4.53;;;;;;;24.42;69.15;65570.44;5052201;28;20213;-52
2023/07/19 00:36:09;;;;;;;9.15;4.53;;;;;;;24.36;69.57;65563.25;5052306;28;20708;-54
2023/07/19 00:38:35;;;;;;;7.15;4.75;;;;;;;24.35;69.35;65562.13;5052334;28;20280;-51
2023/07/19 00:41:01;;;;;;;5.32;4.32;;;;;;;24.45;68.23;65573.75;5052290;28;20248;-51
2023/07/19 00:43:26;;;;;;;6.60;4.43;;;;;;;24.41;67.38;65569.34;5052026;28;20736;-51
2023/07/19 00:45:56;;;;;;;5.65;4.50;;;;;;;24.29;66.99;65552.88;5052050;28;20196;-50
2023/07/19 00:48:22;;;;;;;6.82;4.43;;;;;;;24.07;67.99;65534.22;5051879;28;20224;-51
2023/07/19 00:50:50;;;;;;;6.03;4.07;;;;;;;24.06;68.38;65531.06;5033930;28;20241;-51
2023/07/19 00:53:17;;;;;;;4.93;4.43;;;;;;;24.07;69.03;65531.63;5052062;28;20224;-53
2023/07/19 00:55:47;;;;;;;5.57;4.50;;;;;;;24.11;67.98;65533.50;5051859;28;20193;-52
2023/07/19 00:58:13;;;;;;;6.43;4.65;;;;;;;24.13;67.39;65535.72;5052078;28;20204;-52
2023/07/19 01:00:39;;;;;;;5.40;4.03;;;;;;;24.02;68.12;65526.63;5051813;28;20208;-52
2023/07/19 01:03:04;;;;;;;4.95;4.43;;;;;;;24.03;67.56;65530.34;5051567;28;20724;-51
2023/07/19 01:05:30;;;;;;;5.63;4.30;;;;;;;23.97;68.05;65521.09;5051877;28;20262;-51
2023/07/19 01:07:58;;;;;;;6.72;4.60;;;;;;;23.94;68.21;65514.59;5051573;28;20304;-50
2023/07/19 01:10:25;;;;;;;4.88;4.25;;;;;;;23.91;68.98;65513.88;5051791;28;20229;-51
2023/07/19 01:13:11;;;;;;;5.00;4.28;;;;;;;23.83;69.40;65505.00;5033452;28;20222;-52
2023/07/19 01:15:40;;;;;;;7.78;4.85;;;;;;;23.83;71.15;65503.00;5051470;28;20209;-50
2023/07/19 01:18:12;;;;;;;6.90;4.88;;;;;;;23.83;71.44;65507.56;5050969;28;20201;-51
2023/07/19 01:20:37;;;;;;;6.82;5.00;;;;;;;23.85;71.53;65505.22;5050093;28;20217;-51
2023/07/19 01:23:04;;;;;;;6.63;4.20;;;;;;;24.06;70.38;65527.94;5052207;28;20246;-51
2023/07/19 01:25:30;;;;;;;6.22;4.85;;;;;;;24.01;69.10;65524.97;5051673;28;20213;-50
2023/07/19 01:27:56;;;;;;;4.78;4.03;;;;;;;23.83;69.01;65505.00;5049995;28;20202;-52
2023/07/19 01:30:22;;;;;;;5.95;4.43;;;;;;;23.62;70.21;65482.28;5051561;28;20671;-51
2023/07/19 01:32:48;;;;;;;7.47;4.65;;;;;;;23.53;70.21;65472.31;5051243;28;20209;-51
2023/07/19 01:35:13;;;;;;;8.20;4.78;;;;;;;23.48;71.52;65466.19;5051125;28;20236;-50
2023/07/19 01:37:39;;;;;;;6.90;4.78;;;;;;;23.56;70.85;65477.66;5051199;28;20202;-52
2023/07/19 01:40:05;;;;;;;6.55;4.75;;;;;;;23.66;70.17;65486.16;5051015;28;20290;-51
2023/07/19 01:42:31;;;;;;;6.68;4.65;;;;;;;23.63;70.54;65482.84;5051110;28;20213;-50
2023/07/19 01:44:59;;;;;;;7.18;4.65;;;;;;;23.54;71.24;65470.28;5051026;28;20219;-51
2023/07/19 01:47:25;;;;;;;6.00;4.63;;;;;;;23.36;71.75;65456.03;5033446;28;20212;-51
2023/07/19 01:49:51;;;;;;;6.20;4.90;;;;;;;23.28;71.11;65447.72;5051073;28;20208;-50
2023/07/19 01:52:17;;;;;;;7.55;4.85;;;;;;;23.20;71.01;65435.72;5051097;28;20209;-53
2023/07/19 01:54:43;;;;;;;6.32;4.47;;;;;;;23.08;72.70;65420.41;5050923;28;20209;-51
2023/07/19 01:57:08;;;;;;;8.95;4.82;;;;;;;23.13;72.34;65428.50;5050987;28;20259;-51
2023/07/19 01:59:34;;;;;;;8.40;4.68;;;;;;;23.08;72.55;65419.84;5050918;28;20232;-51
2023/07/19 02:01:59;;;;;;;6.88;5.00;;;;;;;22.95;73.18;65406.00;5050774;28;20651;-54
2023/07/19 02:04:25;;;;;;;5.32;4.60;;;;;;;22.85;74.02;65396.94;5050751;28;20751;-55
2023/07/19 02:06:50;;;;;;;6.63;4.72;;;;;;;22.83;74.11;65394.72;5050892;28;20217;-52
2023/07/19 02:09:16;;;;;;;5.22;4.68;;;;;;;22.82;74.52;65396.19;5050978;28;20196;-50
2023/07/19 02:11:41;;;;;;;7.80;4.72;;;;;;;22.74;74.84;65382.75;5051369;28;20213;-53
2023/07/19 02:14:07;;;;;;;6.05;4.68;;;;;;;22.78;74.55;65387.19;5050854;28;20284;-53
2023/07/19 02:16:34;;;;;;;9.27;4.82;;;;;;;22.84;74.54;65396.41;5050785;28;20217;-54
2023/07/19 02:19:00;;;;;;;6.55;5.55;;;;;;;22.75;75.16;65383.31;5050627;28;20212;-52
2023/07/19 02:21:26;;;;;;;8.07;4.95;;;;;;;22.72;75.56;65380.00;5050502;28;20209;-50
2023/07/19 02:23:52;;;;;;;6.35;4.70;;;;;;;22.69;74.66;65382.34;5050589;28;20296;-56
2023/07/19 02:26:18;;;;;;;4.93;4.43;;;;;;;22.66;75.19;65375.91;5050361;28;20213;-51
2023/07/19 02:28:43;;;;;;;6.85;4.93;;;;;;;22.51;75.03;65362.97;5049524;28;20207;-53
2023/07/19 02:31:09;;;;;;;7.55;4.82;;;;;;;22.49;75.20;65357.63;5050526;28;20300;-53
2023/07/19 02:33:35;;;;;;;8.02;4.88;;;;;;;22.49;76.54;65355.06;5050394;28;20605;-52
2023/07/19 02:36:00;;;;;;;8.57;4.75;;;;;;;22.60;75.46;65369.28;5050434;28;20260;-54
2023/07/19 02:38:25;;;;;;;9.02;4.40;;;;;;;22.60;73.66;65367.25;5050218;28;20566;-51
2023/07/19 02:41:00;;;;;;;6.45;4.45;;;;;;;22.48;74.04;65356.53;5050258;28;20221;-50
2023/07/19 02:43:26;;;;;;;6.57;4.25;;;;;;;22.49;73.22;65357.63;5050116;28;20213;-51
2023/07/19 02:45:53;;;;;;;10.25;4.93;;;;;;;22.36;73.61;65343.78;5050061;28;20205;-50
2023/07/19 02:48:20;;;;;;;5.47;4.50;;;;;;;22.32;74.07;65336.25;5050246;28;20208;-51
2023/07/19 02:50:46;;;;;;;5.50;4.78;;;;;;;22.27;74.22;65330.69;5050002;28;20207;-51
2023/07/19 02:53:12;;;;;;;5.38;4.60;;;;;;;22.18;74.68;65323.84;5050226;28;20198;-55
2023/07/19 02:55:37;;;;;;;5.13;4.47;;;;;;;22.11;75.01;65315.56;5050150;28;20573;-50
2023/07/19 02:58:03;;;;;;;7.30;4.60;;;;;;;22.13;74.96;65318.31;5050069;28;20624;-51
2023/07/19 03:00:28;;;;;;;8.50;5.00;;;;;;;22.19;75.49;65324.41;5049892;28;20213;-50
2023/07/19 03:02:55;;;;;;;5.50;4.68;;;;;;;22.19;74.75;65324.97;5049857;28;20706;-50
2023/07/19 03:05:21;;;;;;;7.60;4.10;;;;;;;22.16;74.88;65321.09;5049779;28;20208;-52
2023/07/19 03:07:47;;;;;;;6.85;4.85;;;;;;;22.13;74.48;65320.34;5049939;28;20288;-51
2023/07/19 03:10:12;;;;;;;9.82;5.22;;;;;;;22.07;74.42;65309.13;5049961;28;20763;-51
2023/07/19 03:12:40;;;;;;;7.95;4.40;;;;;;;22.07;74.79;65306.56;5049934;28;20213;-51
2023/07/19 03:15:06;;;;;;;8.48;4.30;;;;;;;22.36;74.79;65343.78;5050137;28;20258;-52
2023/07/19 03:17:32;;;;;;;7.45;4.30;;;;;;;22.46;73.28;65354.84;5049930;28;20217;-51
2023/07/19 03:19:57;;;;;;;7.05;4.22;;;;;;;22.51;72.71;65359.84;5049777;28;20598;-50
2023/07/19 03:22:23;;;;;;;7.10;4.40;;;;;;;22.55;72.43;65361.69;5049791;28;20664;-51
2023/07/19 03:24:49;;;;;;;6.30;4.20;;;;;;;22.53;74.22;65362.59;5050077;28;20217;-55
2023/07/19 03:27:15;;;;;;;8.70;5.32;;;;;;;22.59;74.31;65365.59;5067476;22;20229;-51
2023/07/19 03:29:40;;;;;;;7.20;5.45;;;;;;;22.51;74.46;65360.38;5069661;28;20200;-51
2023/07/19 03:32:07;;;;;;;7.07;5.20;;;;;;;22.59;75.61;65368.16;5056737;28;20222;-52
2023/07/19 03:34:32;;;;;;;5.95;5.30;;;;;;;22.48;75.63;65356.53;5049674;28;20228;-52
2023/07/19 03:36:58;;;;;;;6.72;5.22;;;;;;;22.27;75.08;65328.13;5031795;28;20214;-51
2023/07/19 03:39:24;;;;;;;6.78;5.35;;;;;;;22.07;74.89;65309.13;5049741;28;20664;-53
2023/07/19 03:41:50;;;;;;;5.53;4.95;;;;;;;21.70;76.60;65271.28;5052583;28;20265;-52
2023/07/19 03:44:15;;;;;;;6.90;5.60;;;;;;;21.56;78.61;65255.22;5053044;28;20213;-52
2023/07/19 03:46:40;;;;;;;6.88;5.30;;;;;;;21.47;80.21;65245.28;5052941;28;20578;-51
2023/07/19 03:49:06;;;;;;;10.30;5.28;;;;;;;21.52;80.78;65253.38;5051657;28;20205;-51
2023/07/19 03:51:31;;;;;;;9.52;6.03;;;;;;;21.63;81.32;65266.09;5052770;28;20221;-51
2023/07/19 03:53:57;;;;;;;6.68;5.40;;;;;;;21.71;81.00;65272.38;5053061;28;20201;-51
2023/07/19 03:56:23;;;;;;;6.95;5.28;;;;;;;21.81;81.40;65282.91;5052855;28;20652;-51
2023/07/19 03:58:49;;;;;;;7.57;5.45;;;;;;;21.88;81.83;65290.09;5052829;28;20198;-51
2023/07/19 04:01:16;;;;;;;7.57;5.60;;;;;;;21.90;82.44;65289.75;5052629;28;20590;-53
2023/07/19 04:03:41;;;;;;;6.75;5.95;;;;;;;21.82;83.90;65281.44;5034709;28;20334;-51
2023/07/19 04:06:07;;;;;;;8.77;6.03;;;;;;;21.71;85.64;65272.38;5052830;28;20212;-52
2023/07/19 04:08:34;;;;;;;8.30;5.20;;;;;;;21.88;85.52;65288.09;5052794;28;20213;-50
2023/07/19 04:11:00;;;;;;;8.73;6.70;;;;;;;21.95;85.38;65298.41;5052624;28;20205;-52
2023/07/19 04:13:26;;;;;;;6.82;5.78;;;;;;;21.78;86.34;65279.56;5052681;28;20612;-51
2023/07/19 04:15:52;;;;;;;9.32;6.25;;;;;;;21.76;86.36;65277.34;5052552;28;20232;-52
2023/07/19 04:18:17;;;;;;;7.82;5.85;;;;;;;21.66;86.75;65266.28;5052940;28;20203;-50
2023/07/19 04:20:44;;;;;;;8.25;5.80;;;;;;;21.74;86.60;65275.13;5052649;28;20690;-52
2023/07/19 04:23:09;;;;;;;8.95;5.95;;;;;;;21.77;85.01;65275.34;5051228;28;20213;-51
2023/07/19 04:25:36;;;;;;;10.48;5.30;;;;;;;21.79;84.73;65280.13;5052280;28;20201;-51
2023/07/19 04:28:02;;;;;;;6.03;5.28;;;;;;;21.69;81.85;65270.16;5034519;28;20216;-52
2023/07/19 04:30:28;;;;;;;7.20;5.65;;;;;;;21.72;84.35;65270.38;5052432;28;20266;-52
2023/07/19 04:32:55;;;;;;;8.05;5.82;;;;;;;21.67;84.84;65270.50;5052388;28;20763;-50
2023/07/19 04:35:22;;;;;;;6.78;5.10;;;;;;;21.70;84.92;65271.28;5052193;28;20205;-52
2023/07/19 04:37:49;;;;;;;6.55;5.20;;;;;;;21.74;84.76;65275.13;5052213;28;20209;-51
2023/07/19 04:40:16;;;;;;;7.43;4.88;;;;;;;21.75;84.78;65274.22;5052016;28;20404;-51
2023/07/19 04:42:43;;;;;;;7.10;5.70;;;;;;;21.79;84.68;65280.13;5033854;28;20352;-50
2023/07/19 04:45:16;;;;;;;6.55;5.78;;;;;;;21.88;84.94;65287.53;5051769;28;20209;-55
2023/07/19 04:47:41;;;;;;;6.20;5.60;;;;;;;21.98;84.74;65298.63;5051913;28;20293;-55
2023/07/19 04:50:09;;;;;;;6.97;5.60;;;;;;;22.07;85.46;65313.69;5052103;28;20673;-51
2023/07/19 04:52:35;;;;;;;7.38;5.80;;;;;;;22.11;84.15;65318.69;5050958;28;20612;-50
2023/07/19 04:55:02;;;;;;;6.82;5.45;;;;;;;22.27;84.24;65333.25;5033902;28;20216;-50
2023/07/19 04:57:27;;;;;;;7.40;6.65;;;;;;;22.41;83.69;65349.31;5051965;28;20213;-51
2023/07/19 04:59:53;;;;;;;7.40;5.28;;;;;;;22.57;84.12;65363.91;5051802;28;20197;-52
2023/07/19 05:02:18;;;;;;;7.72;5.63;;;;;;;22.62;82.29;65371.47;5051704;28;20210;-51
2023/07/19 05:04:44;;;;;;;8.43;6.18;;;;;;;22.70;83.21;65380.91;5051855;28;20228;-52
2023/07/19 05:07:09;;;;;;;8.23;5.90;;;;;;;22.78;82.21;65389.19;5051962;28;20668;-52
2023/07/19 05:09:35;;;;;;;10.85;6.57;;;;;;;22.89;81.89;65401.38;5051681;28;20605;-54
2023/07/19 05:12:01;;;;;;;10.13;6.28;;;;;;;22.84;82.86;65396.41;5033834;28;20217;-52
2023/07/19 05:14:27;;;;;;;9.02;6.70;;;;;;;22.76;83.90;65384.97;5051603;28;20220;-52
2023/07/19 05:16:52;;;;;;;8.57;6.35;;;;;;;23.02;83.14;65418.34;5051721;28;20567;-51
2023/07/19 05:19:18;;;;;;;9.60;6.50;;;;;;;23.10;81.82;65425.19;5051905;28;20213;-50
2023/07/19 05:21:43;;;;;;;10.05;6.38;;;;;;;23.21;81.82;65434.25;5051522;28;20714;-52
2023/07/19 05:24:11;;;;;;;10.85;6.60;;;;;;;23.12;81.21;65424.84;5051395;28;20664;-51
2023/07/19 05:26:39;;;;;;;9.57;6.28;;;;;;;22.96;82.33;65407.13;5033557;28;20363;-52
2023/07/19 05:29:05;;;;;;;9.30;6.63;;;;;;;23.15;80.58;65427.59;5051618;28;20197;-56
2023/07/19 05:31:30;;;;;;;9.05;6.65;;;;;;;23.03;82.42;65414.88;5033451;28;20209;-51
2023/07/19 05:33:56;;;;;;;14.50;10.57;;;;;;;23.05;83.17;65419.09;5050074;28;20219;-51
2023/07/19 05:36:22;;;;;;;12.75;9.98;;;;;;;22.94;83.69;65407.47;5051253;28;20240;-51
2023/07/19 05:38:48;;;;;;;17.35;10.65;;;;;;;22.98;84.63;65411.34;5051433;28;20583;-51
2023/07/19 05:41:13;;;;;;;11.55;7.03;;;;;;;23.24;83.38;65438.13;5049676;28;20676;-51
2023/07/19 05:43:39;;;;;;;12.25;7.07;;;;;;;23.48;80.01;65468.78;5049511;28;20216;-57
2023/07/19 05:46:06;;;;;;;11.05;7.07;;;;;;;23.42;78.10;65456.97;5049245;28;20212;-51
2023/07/19 05:48:33;;;;;;;10.00;7.38;;;;;;;23.63;80.08;65485.41;5051170;28;20594;-53
2023/07/19 05:51:03;;;;;;;7.72;6.95;;;;;;;23.88;78.82;65510.53;5049310;28;20209;-53
2023/07/19 05:53:29;;;;;;;14.07;10.07;;;;;;;23.82;78.26;65501.88;5049902;28;20209;-54
2023/07/19 05:55:54;;;;;;;9.95;7.80;;;;;;;23.79;77.16;65500.56;5050605;28;20217;-57
2023/07/19 05:58:21;;;;;;;9.38;7.15;;;;;;;23.90;76.62;65510.19;5051058;28;20216;-58
2023/07/19 06:00:47;;;;;;;10.38;6.53;;;;;;;23.86;77.70;65508.31;5050892;28;20193;-52
2023/07/19 06:03:16;;;;;;;10.38;7.25;;;;;;;23.85;78.18;65504.66;5032552;28;20220;-52
2023/07/19 06:05:45;;;;;;;9.73;7.10;;;;;;;24.10;78.53;65534.94;5032899;28;20236;-53
2023/07/19 06:08:12;;;;;;;10.60;7.35;;;;;;;24.28;75.91;65552.31;5050811;28;20335;-55
2023/07/19 06:10:39;;;;;;;9.98;8.27;;;;;;;24.35;74.86;65560.09;5050572;28;20208;-59
2023/07/19 06:13:06;;;;;;;9.10;7.03;;;;;;;24.30;74.22;65554.53;5049363;28;20225;-53
2023/07/19 06:15:32;;;;;;;10.45;6.10;;;;;;;24.16;75.54;65544.19;5051024;28;20232;-52
2023/07/19 06:17:59;;;;;;;16.65;11.75;;;;;;;24.18;76.76;65541.78;5050674;28;20236;-51
2023/07/19 06:20:24;;;;;;;11.07;7.10;;;;;;;23.90;75.95;65510.19;5050762;28;20362;-51
2023/07/19 06:22:50;;;;;;;11.32;7.43;;;;;;;23.94;76.33;65517.19;5050525;28;20245;-61
2023/07/19 06:25:16;;;;;;;21.88;13.85;;;;;;;24.08;75.63;65530.16;5050663;28;20584;-51
2023/07/19 06:27:42;;;;;;;14.77;12.77;;;;;;;24.20;76.15;65543.47;5050397;28;20214;-53
2023/07/19 06:30:09;;;;;;;12.45;8.35;;;;;;;24.56;74.89;65585.97;5050472;28;20684;-55
2023/07/19 06:32:36;;;;;;;9.13;7.38;;;;;;;24.84;72.48;65614.47;5050195;28;20262;-51
2023/07/19 06:35:05;;;;;;;15.48;8.70;;;;;;;24.69;74.93;65597.81;5050406;28;20197;-54
2023/07/19 06:37:32;;;;;;;9.60;6.43;;;;;;;24.75;73.78;65604.47;5032947;28;20209;-52
2023/07/19 06:40:00;;;;;;;13.00;7.88;;;;;;;24.66;73.81;65593.94;5032577;28;20219;-51
2023/07/19 06:42:25;;;;;;;9.20;5.38;;;;;;;24.73;70.82;65602.25;5050541;28;20245;-53
2023/07/19 06:44:53;;;;;;;11.43;7.72;;;;;;;24.66;72.44;65594.50;5050397;28;20256;-53
2023/07/19 06:47:19;;;;;;;11.63;6.45;;;;;;;24.70;72.47;65600.94;5032288;28;20217;-51
2023/07/19 06:49:45;;;;;;;11.90;8.45;;;;;;;24.86;72.69;65619.28;5050128;28;20197;-52
2023/07/19 06:52:10;;;;;;;13.02;8.43;;;;;;;24.88;73.02;65618.91;5050363;28;20244;-51
2023/07/19 06:54:36;;;;;;;8.40;6.47;;;;;;;24.99;70.68;65628.53;5032207;28;20588;-52
2023/07/19 06:57:01;;;;;;;9.85;6.45;;;;;;;25.09;69.37;65641.66;5050191;28;20213;-51
2023/07/19 06:59:28;;;;;;;15.73;6.35;;;;;;;25.10;68.53;65642.22;5050155;28;20197;-51
2023/07/19 07:01:53;;;;;;;14.32;6.70;;;;;;;25.11;69.57;65643.31;5050162;28;20253;-52
2023/07/19 07:04:19;;;;;;;12.35;7.03;;;;;;;25.13;69.42;65646.09;5050089;28;20213;-52
2023/07/19 07:06:45;;;;;;;9.65;7.10;;;;;;;25.33;69.47;65667.75;5049965;28;20210;-58
2023/07/19 07:09:11;;;;;;;9.45;7.45;;;;;;;25.49;69.37;65686.06;5049767;28;20276;-52
2023/07/19 07:11:37;;;;;;;12.95;9.85;;;;;;;25.52;69.93;65688.84;5050070;28;20694;-52
2023/07/19 07:14:02;;;;;;;10.65;7.13;;;;;;;25.45;69.76;65681.63;5050075;28;20214;-50
2023/07/19 07:16:28;;;;;;;13.45;8.15;;;;;;;25.68;68.74;65706.59;5052130;28;20209;-51
2023/07/19 07:18:55;;;;;;;12.18;7.97;;;;;;;25.74;68.95;65711.25;5053428;28;20201;-56
2023/07/19 07:21:20;;;;;;;12.98;6.70;;;;;;;25.82;67.62;65722.16;5053411;28;20201;-51
2023/07/19 07:23:46;;;;;;;13.73;7.70;;;;;;;26.27;65.79;65772.16;5053272;28;20220;-52
2023/07/19 07:26:11;;;;;;;10.32;6.68;;;;;;;26.19;65.10;65763.25;5053216;28;20300;-52
2023/07/19 07:28:37;;;;;;;12.60;7.32;;;;;;;26.06;65.50;65748.25;5053382;28;20224;-51
2023/07/19 07:31:09;;;;;;;11.55;8.20;;;;;;;26.08;65.11;65751.03;5053070;28;20244;-54
2023/07/19 07:33:35;;;;;;;8.73;6.70;;;;;;;26.14;64.81;65757.16;5053339;28;20288;-52
2023/07/19 07:36:01;;;;;;;8.25;6.85;;;;;;;26.30;65.17;65772.88;5035129;28;20319;-51
2023/07/19 07:38:27;;;;;;;8.75;6.28;;;;;;;26.36;62.64;65782.13;5053017;28;20332;-52
2023/07/19 07:41:05;;;;;;;8.10;6.35;;;;;;;26.55;61.28;65805.28;5053292;28;20586;-51
2023/07/19 07:43:31;;;;;;;9.65;6.60;;;;;;;26.52;60.69;65802.50;5035502;28;20308;-51
2023/07/19 07:45:58;;;;;;;10.25;6.57;;;;;;;26.45;61.91;65789.56;5051514;28;20205;-53
2023/07/19 07:48:24;;;;;;;9.73;6.65;;;;;;;26.46;61.57;65792.72;5053121;28;20204;-51
2023/07/19 07:50:51;;;;;;;9.90;6.40;;;;;;;26.65;62.70;65813.81;5052938;28;20204;-51
2023/07/19 07:53:21;;;;;;;8.30;6.50;;;;;;;26.84;62.22;65831.81;5034775;28;20233;-51
2023/07/19 07:55:50;;;;;;;11.95;6.10;;;;;;;26.92;61.71;65843.28;5052704;28;20201;-52
2023/07/19 07:58:17;;;;;;;9.68;7.38;;;;;;;26.97;61.91;65844.22;5052856;28;20198;-53
2023/07/19 08:00:43;;;;;;;9.00;6.72;;;;;;;27.05;59.72;65855.16;5051476;28;20596;-51
2023/07/19 08:03:09;;;;;;;10.80;7.75;;;;;;;27.13;59.29;65867.16;5053045;28;20228;-53
2023/07/19 08:05:35;;;;;;;6.10;5.50;;;;;;;27.26;56.72;65881.06;5052907;28;20185;-52
2023/07/19 08:08:04;;;;;;;8.30;6.10;;;;;;;27.28;56.71;65881.28;5035392;28;20209;-52
2023/07/19 08:10:30;;;;;;;9.60;6.22;;;;;;;27.60;55.34;65916.31;5053005;28;20213;-52
2023/07/19 08:12:55;;;;;;;8.45;5.55;;;;;;;27.68;55.82;65927.78;5052866;28;20209;-51
2023/07/19 08:15:23;;;;;;;9.45;6.55;;;;;;;27.77;55.00;65939.84;5051342;28;20267;-54
2023/07/19 08:17:49;;;;;;;11.27;5.95;;;;;;;27.79;54.67;65939.47;5052696;28;20218;-51
2023/07/19 08:20:15;;;;;;;13.82;6.38;;;;;;;27.89;54.67;65951.16;5034645;28;20221;-51
2023/07/19 08:22:41;;;;;;;9.23;6.18;;;;;;;27.91;54.30;65952.81;5052344;28;20312;-54
2023/07/19 08:25:07;;;;;;;17.02;11.98;;;;;;;28.00;54.68;65963.41;5052316;28;20217;-51
2023/07/19 08:27:32;;;;;;;32.50;22.48;;;;;;;28.07;56.17;65968.06;5052498;28;20210;-51
2023/07/19 08:30:00;;;;;;;21.52;15.15;;;;;;;28.17;56.58;65979.75;5052420;28;20207;-51
2023/07/19 08:32:25;;;;;;;10.55;6.43;;;;;;;28.18;52.48;65980.28;5051002;28;20205;-52
2023/07/19 08:34:51;;;;;;;8.90;5.88;;;;;;;28.23;51.86;65985.84;5052409;28;20266;-53
2023/07/19 08:37:18;;;;;;;6.90;6.15;;;;;;;28.26;51.00;65994.38;5052304;28;20272;-50
2023/07/19 08:39:43;;;;;;;6.60;5.45;;;;;;;28.19;51.36;65981.97;5052446;28;20205;-53
2023/07/19 08:42:09;;;;;;;9.63;5.38;;;;;;;28.24;48.58;65989.53;5052130;28;20769;-52
2023/07/19 08:44:34;;;;;;;13.02;5.72;;;;;;;28.29;48.57;65991.97;5034176;28;20787;-51
2023/07/19 08:47:02;;;;;;;8.80;5.53;;;;;;;28.59;48.02;66027.97;5051935;28;20213;-52
2023/07/19 08:49:28;;;;;;;11.90;6.55;;;;;;;28.68;48.67;66035.41;5052015;28;20197;-50
2023/07/19 08:51:56;;;;;;;11.20;6.10;;;;;;;28.69;49.63;66039.09;5052115;28;20801;-50
2023/07/19 08:54:21;;;;;;;8.13;6.13;;;;;;;28.72;48.37;66039.84;5051971;28;20210;-52
2023/07/19 08:56:47;;;;;;;7.13;5.75;;;;;;;28.69;48.59;66039.09;5051897;28;20201;-51
2023/07/19 08:59:13;;;;;;;11.02;6.88;;;;;;;28.74;48.30;66045.22;5052042;28;20197;-51
2023/07/19 09:01:39;;;;;;;8.63;6.00;;;;;;;28.95;48.52;66065.44;5017257;28;20749;-51
2023/07/19 09:04:11;;;;;;;9.63;6.57;;;;;;;29.14;48.91;66089.22;5051919;28;20204;-52
2023/07/19 09:06:40;;;;;;;9.00;6.07;;;;;;;29.33;49.32;66104.63;5050473;28;20232;-51
2023/07/19 09:09:09;;;;;;;12.45;6.45;;;;;;;29.43;48.84;66116.31;5051853;28;20210;-51
2023/07/19 09:11:35;;;;;;;10.43;6.80;;;;;;;29.50;48.09;66126.72;5051731;28;20295;-52
2023/07/19 09:14:01;;;;;;;9.27;6.80;;;;;;;29.55;47.53;66131.72;5051523;28;20656;-51
2023/07/19 09:16:29;;;;;;;11.27;6.47;;;;;;;29.44;47.80;66122.06;5051478;28;20580;-53
2023/07/19 09:18:57;;;;;;;15.18;6.75;;;;;;;29.52;47.50;66130.97;5051511;28;20225;-51
2023/07/19 09:21:33;;;;;;;7.97;6.20;;;;;;;29.69;46.54;66144.72;5050107;28;20213;-54
2023/07/19 09:24:03;;;;;;;10.15;6.63;;;;;;;29.72;46.83;66153.28;5033365;28;20742;-52
2023/07/19 09:26:52;;;;;;;9.05;6.82;;;;;;;29.87;46.40;66170.00;5051089;28;20245;-52
2023/07/19 09:29:19;;;;;;;7.32;6.13;;;;;;;30.09;45.82;66191.91;5051210;28;20229;-52
2023/07/19 09:31:55;;;;;;;7.65;6.53;;;;;;;30.21;45.95;66207.31;5051381;28;20220;-61
2023/07/19 09:34:41;;;;;;;7.82;6.40;;;;;;;30.65;44.40;66251.75;5051172;28;20596;-51
2023/07/19 09:37:06;;;;;;;10.13;7.50;;;;;;;30.57;45.06;66245.44;5050429;28;20221;-52
2023/07/19 09:39:34;;;;;;;8.77;7.53;;;;;;;30.67;44.89;66258.63;5050793;28;20228;-52
2023/07/19 09:42:00;;;;;;;10.77;6.70;;;;;;;31.08;42.70;66301.78;5051030;28;20206;-53
2023/07/19 09:44:27;;;;;;;11.80;7.13;;;;;;;31.15;43.22;66309.56;5051049;28;20217;-52
2023/07/19 09:46:54;;;;;;;9.07;7.00;;;;;;;30.90;43.60;66284.31;5050822;28;20210;-51
2023/07/19 09:49:20;;;;;;;8.38;6.30;;;;;;;31.10;43.76;66301.41;5050956;28;20205;-51
2023/07/19 09:51:47;;;;;;;9.55;6.93;;;;;;;31.67;44.97;66366.50;5051078;28;20220;-52
2023/07/19 09:54:14;;;;;;;14.73;7.30;;;;;;;31.74;46.00;66374.84;5051128;28;20324;-51
2023/07/19 09:56:42;;;;;;;10.85;7.53;;;;;;;31.64;43.69;66363.13;5051074;28;20201;-52
2023/07/19 09:59:16;;;;;;;12.40;7.07;;;;;;;31.45;42.00;66343.06;5050997;28;20201;-52
2023/07/19 10:01:42;;;;;;;9.38;6.75;;;;;;;31.36;41.55;66332.44;5051116;28;20225;-52
2023/07/19 10:04:27;;;;;;;10.02;6.60;;;;;;;31.73;40.88;66370.56;5050744;28;20696;-55
2023/07/19 10:07:07;;;;;;;12.10;7.15;;;;;;;32.04;41.48;66405.19;5050767;28;20216;-50
2023/07/19 10:09:43;;;;;;;14.65;7.80;;;;;;;32.39;42.27;66446.88;5051120;28;20211;-51
2023/07/19 10:12:17;;;;;;;10.45;6.95;;;;;;;32.37;42.70;66442.03;5050847;28;20217;-51
2023/07/19 10:15:07;;;;;;;9.73;7.32;;;;;;;32.88;42.02;66501.06;5050839;28;20200;-50
2023/07/19 10:17:54;;;;;;;13.98;8.90;;;;;;;33.18;41.56;66534.59;5050489;28;20210;-51
2023/07/19 10:20:29;;;;;;;9.52;6.45;;;;;;;33.50;42.88;66569.78;5050560;28;20197;-53
2023/07/19 10:22:57;;;;;;;10.35;6.50;;;;;;;33.64;41.81;66585.44;5050506;28;20594;-54
2023/07/19 10:25:37;;;;;;;11.95;7.05;;;;;;;33.91;42.54;66612.44;5050793;28;20197;-51
2023/07/19 10:28:09;;;;;;;12.45;6.53;;;;;;;34.20;39.50;66650.13;5050461;28;20212;-51
2023/07/19 10:30:44;;;;;;;12.45;6.80;;;;;;;33.71;39.00;66591.22;5050515;28;20202;-52
2023/07/19 10:33:27;;;;;;;8.80;6.75;;;;;;;33.24;39.21;66538.09;5050597;28;20263;-52
2023/07/19 10:35:55;;;;;;;7.03;6.28;;;;;;;33.19;38.18;66535.69;5032483;28;20216;-52
2023/07/19 10:38:26;;;;;;;7.72;6.50;;;;;;;32.96;39.19;66509.97;5050507;28;20201;-51
2023/07/19 10:40:59;;;;;;;10.32;6.80;;;;;;;33.61;38.25;66580.03;5032614;28;20191;-51
2023/07/19 10:43:30;;;;;;;10.13;6.38;;;;;;;33.63;37.00;66584.31;5050332;28;20225;-52
2023/07/19 10:45:56;;;;;;;7.32;6.25;;;;;;;33.69;37.06;66591.03;5050285;28;20212;-52
2023/07/19 10:48:26;;;;;;;10.48;6.80;;;;;;;33.68;37.65;66590.47;5050287;28;20205;-52
2023/07/19 10:50:55;;;;;;;13.00;6.43;;;;;;;33.43;36.20;66559.88;5049068;28;20204;-52
2023/07/19 10:53:21;;;;;;;12.57;6.50;;;;;;;33.54;34.92;66571.66;5050192;28;20205;-53
2023/07/19 10:55:46;;;;;;;7.10;6.07;;;;;;;33.58;34.70;66576.13;5050200;28;20200;-52
2023/07/19 10:58:14;;;;;;;6.93;6.22;;;;;;;34.02;34.24;66627.94;5050068;28;20278;-51
2023/07/19 11:00:43;;;;;;;9.38;6.85;;;;;;;34.59;33.97;66689.06;5050165;28;20228;-51
2023/07/19 11:03:13;;;;;;;7.40;5.82;;;;;;;35.03;35.32;66737.75;5049897;28;20207;-52
2023/07/19 11:05:41;;;;;;;8.95;6.03;;;;;;;34.83;32.64;66714.81;5050070;28;20220;-52
2023/07/19 11:08:07;;;;;;;12.25;6.93;;;;;;;34.81;33.09;66713.13;5050305;28;20699;-52
2023/07/19 11:10:32;;;;;;;9.23;6.80;;;;;;;34.64;34.50;66697.28;5032054;28;20201;-51
2023/07/19 11:12:58;;;;;;;7.97;6.28;;;;;;;35.31;32.35;66773.78;5049976;28;20262;-51
2023/07/19 11:15:27;;;;;;;10.32;7.25;;;;;;;35.66;32.90;66807.16;5015570;28;20578;-52
2023/07/19 11:17:56;;;;;;;8.95;6.85;;;;;;;35.66;33.13;66807.16;5049853;28;20265;-51
2023/07/19 11:20:30;;;;;;;8.32;6.35;;;;;;;35.88;32.44;66831.75;5049895;28;20319;-50
2023/07/19 11:23:07;;;;;;;12.88;7.03;;;;;;;35.46;31.74;66785.31;5048307;28;20209;-52
2023/07/19 11:25:34;;;;;;;9.77;6.80;;;;;;;35.03;32.31;66737.19;5049841;28;20291;-52
2023/07/19 11:28:00;;;;;;;8.73;5.85;;;;;;;34.63;32.63;66698.22;5032399;28;20210;-52
2023/07/19 11:30:39;;;;;;;7.50;6.13;;;;;;;35.07;31.53;66744.84;5049834;28;20230;-52
2023/07/19 11:33:08;;;;;;;10.73;5.97;;;;;;;35.57;32.90;66799.72;5050290;28;20221;-52